createdAt,value
2022-11-16T00:00:44.508Z,9.35
2022-11-16T00:03:48.513Z,9.33
2022-11-16T00:06:51.195Z,9.27
2022-11-16T00:09:54.121Z,9.32
2022-11-16T00:12:56.621Z,9.38
2022-11-16T00:16:00.082Z,9.39
2022-11-16T00:19:05.141Z,9.47
2022-11-16T00:22:08.043Z,9.32
2022-11-16T00:25:10.595Z,9.38
2022-11-16T00:28:13.492Z,9.31
2022-11-16T00:31:16.046Z,9.45
2022-11-16T00:34:19.851Z,9.40
2022-11-16T00:37:22.407Z,9.36
2022-11-16T00:40:25.358Z,9.43
2022-11-16T00:43:28.561Z,9.41
2022-11-16T00:46:31.621Z,9.38
2022-11-16T00:49:34.375Z,9.34
2022-11-16T00:52:37.219Z,9.33
2022-11-16T00:55:40.875Z,9.30
2022-11-16T00:58:44.516Z,9.36
2022-11-16T01:01:47.443Z,9.38
2022-11-16T01:04:50.479Z,9.32
2022-11-16T01:07:53.528Z,9.32
2022-11-16T01:11:16.405Z,9.35
2022-11-16T01:14:19.034Z,9.33
2022-11-16T01:17:21.890Z,9.31
2022-11-16T01:20:29.107Z,9.35
2022-11-16T01:23:32.158Z,9.39
2022-11-16T01:26:34.679Z,9.34
2022-11-16T01:29:37.474Z,9.38
2022-11-16T01:32:40.340Z,9.39
2022-11-16T01:35:44.084Z,9.37
2022-11-16T01:38:48.222Z,9.39
2022-11-16T01:41:53.188Z,9.36
2022-11-16T01:45:07.326Z,9.39
2022-11-16T01:48:17.768Z,9.35
2022-11-16T01:51:21.997Z,9.34
2022-11-16T01:54:25.895Z,9.38
2022-11-16T01:57:35.666Z,9.39
2022-11-16T02:00:39.396Z,9.38
2022-11-16T02:03:45.002Z,9.39
2022-11-16T02:07:08.831Z,9.37
2022-11-16T02:10:41.379Z,9.29
2022-11-16T02:13:58.593Z,9.29
2022-11-16T02:17:27.709Z,9.28
2022-11-16T02:20:42.500Z,9.28
2022-11-16T02:23:54.494Z,9.34
2022-11-16T02:27:40.131Z,9.35
2022-11-16T02:30:53.598Z,9.30
2022-11-16T02:33:57.532Z,9.33
2022-11-16T02:37:03.117Z,9.25
2022-11-16T02:40:11.140Z,9.29
2022-11-16T02:43:21.918Z,9.31
2022-11-16T02:46:31.722Z,9.29
2022-11-16T02:49:40.456Z,9.25
2022-11-16T02:52:43.024Z,9.30
2022-11-16T02:55:46.243Z,9.33
2022-11-16T02:58:49.010Z,9.38
2022-11-16T03:02:01.993Z,9.32
2022-11-16T03:05:17.119Z,9.33
2022-11-16T03:08:31.329Z,9.31
2022-11-16T03:11:56.498Z,9.25
2022-11-16T03:15:10.094Z,9.22
2022-11-16T03:18:15.712Z,9.14
2022-11-16T03:21:30.621Z,9.27
2022-11-16T03:24:33.360Z,9.24
2022-11-16T03:27:42.758Z,9.19
2022-11-16T03:31:21.927Z,9.18
2022-11-16T03:34:30.317Z,9.21
2022-11-16T03:37:34.536Z,9.23
2022-11-16T03:40:39.293Z,9.18
2022-11-16T03:43:44.543Z,9.24
2022-11-16T03:46:48.611Z,9.15
2022-11-16T03:49:51.384Z,9.16
2022-11-16T03:52:54.754Z,9.13
2022-11-16T03:55:57.779Z,9.16
2022-11-16T03:59:03.043Z,9.13
2022-11-16T04:02:05.671Z,9.23
2022-11-16T04:05:28.602Z,9.11
2022-11-16T04:08:50.017Z,9.10
2022-11-16T04:12:31.656Z,9.11
2022-11-16T04:15:52.958Z,9.10
2022-11-16T04:19:14.765Z,9.12
2022-11-16T04:22:41.094Z,9.12
2022-11-16T04:25:46.335Z,9.18
2022-11-16T04:28:50.163Z,9.12
2022-11-16T04:32:11.593Z,9.12
2022-11-16T04:35:46.854Z,9.06
2022-11-16T04:38:50.155Z,9.18
2022-11-16T04:42:12.431Z,9.10
2022-11-16T04:45:34.093Z,9.14
2022-11-16T04:48:37.011Z,9.07
2022-11-16T04:51:40.096Z,9.02
2022-11-16T04:54:42.832Z,9.16
2022-11-16T04:57:45.999Z,9.01
2022-11-16T05:00:48.850Z,9.14
2022-11-16T05:03:51.838Z,9.12
2022-11-16T05:06:54.731Z,9.11
2022-11-16T05:09:58.244Z,9.10
2022-11-16T05:13:01.750Z,9.15
2022-11-16T05:16:05.021Z,9.16
2022-11-16T05:19:26.535Z,9.16
2022-11-16T05:22:29.862Z,9.03
2022-11-16T05:25:36.706Z,9.13
2022-11-16T05:28:40.477Z,9.08
2022-11-16T05:31:44.602Z,9.14
2022-11-16T05:34:48.407Z,9.12
2022-11-16T05:37:51.929Z,9.08
2022-11-16T05:40:55.037Z,9.07
2022-11-16T05:43:58.376Z,9.06
2022-11-16T05:47:02.193Z,9.07
2022-11-16T05:50:05.170Z,9.15
2022-11-16T05:53:08.666Z,9.28
2022-11-16T05:56:14.277Z,9.23
2022-11-16T05:59:19.942Z,9.22
2022-11-16T06:02:23.628Z,9.20
2022-11-16T06:05:27.049Z,9.25
2022-11-16T06:08:30.597Z,9.25
2022-11-16T06:11:35.945Z,9.31
2022-11-16T06:14:39.528Z,9.27
2022-11-16T06:17:43.451Z,9.24
2022-11-16T06:20:47.896Z,9.21
2022-11-16T06:23:50.868Z,9.20
2022-11-16T06:26:53.702Z,9.36
2022-11-16T06:29:57.635Z,9.34
2022-11-16T06:33:00.357Z,9.76
2022-11-16T06:36:03.454Z,9.62
2022-11-16T06:39:06.766Z,9.43
2022-11-16T06:42:10.266Z,9.44
2022-11-16T06:45:14.154Z,9.56
2022-11-16T06:48:18.608Z,9.51
2022-11-16T06:51:21.510Z,9.46
2022-11-16T06:54:24.409Z,9.52
2022-11-16T06:57:27.756Z,9.55
2022-11-16T07:00:30.877Z,9.65
2022-11-16T07:03:34.953Z,9.63
2022-11-16T07:06:39.317Z,9.61
2022-11-16T07:09:44.577Z,9.71
2022-11-16T07:12:47.758Z,9.67
2022-11-16T07:15:50.915Z,9.71
2022-11-16T07:18:59.259Z,9.73
2022-11-16T07:22:04.376Z,9.77
2022-11-16T07:25:08.256Z,9.74
2022-11-16T07:28:10.971Z,9.82
2022-11-16T07:31:15.426Z,9.82
2022-11-16T07:34:18.765Z,9.93
2022-11-16T07:37:22.080Z,9.97
2022-11-16T07:40:24.876Z,9.84
2022-11-16T07:43:32.723Z,9.93
2022-11-16T07:46:46.406Z,9.89
2022-11-16T07:49:50.383Z,9.96
2022-11-16T07:52:55.590Z,10.03
2022-11-16T07:55:58.590Z,9.97
2022-11-16T07:59:01.732Z,9.98
2022-11-16T08:02:05.924Z,10.07
2022-11-16T08:05:09.162Z,10.09
2022-11-16T08:08:13.651Z,10.13
2022-11-16T08:11:16.942Z,10.23
2022-11-16T08:14:20.213Z,10.18
2022-11-16T08:17:23.643Z,10.16
2022-11-16T08:20:28.683Z,10.22
2022-11-16T08:23:33.082Z,10.27
2022-11-16T08:26:35.637Z,10.46
2022-11-16T08:29:39.103Z,10.47
2022-11-16T08:32:42.505Z,10.55
2022-11-16T08:35:45.785Z,10.57
2022-11-16T08:38:52.982Z,10.54
2022-11-16T08:41:56.589Z,10.57
2022-11-16T08:44:59.473Z,10.50
2022-11-16T08:48:04.440Z,10.52
2022-11-16T08:51:19.492Z,10.58
2022-11-16T08:54:23.803Z,10.77
2022-11-16T08:57:26.578Z,10.83
2022-11-16T09:00:30.504Z,10.76
2022-11-16T09:03:33.169Z,10.81
2022-11-16T09:06:36.872Z,11.02
2022-11-16T09:09:39.498Z,10.89
2022-11-16T09:12:42.866Z,11.06
2022-11-16T09:15:45.572Z,11.05
2022-11-16T09:18:51.947Z,11.03
2022-11-16T09:21:54.756Z,11.23
2022-11-16T09:24:57.601Z,11.31
2022-11-16T09:28:00.185Z,11.33
2022-11-16T09:31:06.042Z,11.31
2022-11-16T09:34:08.954Z,11.35
2022-11-16T09:37:11.792Z,11.38
2022-11-16T09:40:14.482Z,11.29
2022-11-16T09:43:32.675Z,11.38
2022-11-16T09:46:48.927Z,11.40
2022-11-16T09:50:02.892Z,11.54
2022-11-16T09:53:18.321Z,11.52
2022-11-16T09:56:29.285Z,11.49
2022-11-16T09:59:49.815Z,11.44
2022-11-16T10:03:13.482Z,11.47
2022-11-16T10:06:28.954Z,11.38
2022-11-16T10:09:32.058Z,11.26
2022-11-16T10:12:59.778Z,11.36
2022-11-16T10:16:13.764Z,11.31
2022-11-16T10:19:31.660Z,11.41
2022-11-16T10:22:50.431Z,11.52
2022-11-16T10:25:59.062Z,11.61
2022-11-16T10:29:33.602Z,11.56
2022-11-16T10:32:47.781Z,11.71
2022-11-16T10:35:54.045Z,11.76
2022-11-16T10:38:59.462Z,11.62
2022-11-16T10:42:07.607Z,11.77
2022-11-16T10:45:11.529Z,11.75
2022-11-16T10:48:32.456Z,11.77
2022-11-16T10:51:35.505Z,11.93
2022-11-16T10:54:42.956Z,11.97
2022-11-16T10:57:56.125Z,12.05
2022-11-16T11:00:59.270Z,11.82
2022-11-16T11:04:15.644Z,11.77
2022-11-16T11:07:31.689Z,11.94
2022-11-16T11:10:37.516Z,11.95
2022-11-16T11:13:40.209Z,12.09
2022-11-16T11:16:43.063Z,11.84
2022-11-16T11:19:45.681Z,11.89
2022-11-16T11:23:00.669Z,12.04
2022-11-16T11:26:03.461Z,12.00
2022-11-16T11:29:35.233Z,11.99
2022-11-16T11:32:40.585Z,12.04
2022-11-16T11:35:43.610Z,12.10
2022-11-16T11:39:03.456Z,12.10
2022-11-16T11:42:20.777Z,11.85
2022-11-16T11:45:44.045Z,11.94
2022-11-16T11:48:58.044Z,11.71
2022-11-16T11:52:10.713Z,11.73
2022-11-16T11:55:16.921Z,11.77
2022-11-16T11:58:20.307Z,11.79
2022-11-16T12:02:02.375Z,11.78
2022-11-16T12:05:11.738Z,11.88
2022-11-16T12:08:52.008Z,11.88
2022-11-16T12:12:14.968Z,11.86
2022-11-16T12:15:53.222Z,11.89
2022-11-16T12:19:08.595Z,11.88
2022-11-16T12:22:33.941Z,11.83
2022-11-16T12:25:45.598Z,11.70
2022-11-16T12:28:51.057Z,11.68
2022-11-16T12:32:25.407Z,11.68
2022-11-16T12:35:45.332Z,11.73
2022-11-16T12:39:12.805Z,11.74
2022-11-16T12:42:27.205Z,11.40
2022-11-16T12:45:54.663Z,11.79
2022-11-16T12:49:34.641Z,11.78
2022-11-16T12:53:04.097Z,11.80
2022-11-16T12:56:06.571Z,11.75
2022-11-16T12:59:15.315Z,11.76
2022-11-16T13:02:23.676Z,11.68
2022-11-16T13:05:36.665Z,11.60
2022-11-16T13:09:11.814Z,11.61
2022-11-16T13:12:21.481Z,11.54
2022-11-16T13:15:33.731Z,11.59
2022-11-16T13:18:42.943Z,11.61
2022-11-16T13:21:59.865Z,11.61
2022-11-16T13:25:21.008Z,11.63
2022-11-16T13:28:41.171Z,11.57
2022-11-16T13:31:55.523Z,11.61
2022-11-16T13:35:00.249Z,11.57
2022-11-16T13:38:03.135Z,11.60
2022-11-16T13:41:31.079Z,11.46
2022-11-16T13:44:34.907Z,11.51
2022-11-16T13:47:37.702Z,11.46
2022-11-16T13:50:49.343Z,11.33
2022-11-16T13:57:34.590Z,11.43
2022-11-16T14:00:40.405Z,11.41
2022-11-16T14:03:49.011Z,11.39
2022-11-16T14:06:51.483Z,11.37
2022-11-16T14:09:54.338Z,11.37
2022-11-16T14:12:57.534Z,11.35
2022-11-16T14:16:49.099Z,11.32
2022-11-16T14:19:55.196Z,11.36
2022-11-16T14:23:16.432Z,11.37
2022-11-16T14:26:37.394Z,11.33
2022-11-16T14:29:58.811Z,11.38
2022-11-16T14:33:01.757Z,11.35
2022-11-16T14:36:07.695Z,11.39
2022-11-16T14:39:31.136Z,11.37
2022-11-16T14:43:09.570Z,11.38
2022-11-16T14:46:15.851Z,11.26
2022-11-16T14:49:20.453Z,11.21
2022-11-16T14:52:39.092Z,11.08
2022-11-16T14:55:44.966Z,11.14
2022-11-16T14:59:06.057Z,11.09
2022-11-16T15:02:23.140Z,11.18
2022-11-16T15:05:33.539Z,11.21
2022-11-16T15:08:45.413Z,11.18
2022-11-16T15:12:08.896Z,11.22
2022-11-16T15:15:11.686Z,11.24
2022-11-16T15:18:18.556Z,11.19
2022-11-16T15:21:23.045Z,11.16
2022-11-16T15:24:31.757Z,11.18
2022-11-16T15:27:41.037Z,11.19
2022-11-16T15:30:48.666Z,11.14
2022-11-16T15:33:52.228Z,11.12
2022-11-16T15:36:54.778Z,11.12
2022-11-16T15:40:00.021Z,11.08
2022-11-16T15:43:05.070Z,11.11
2022-11-16T15:46:08.896Z,11.23
2022-11-16T15:49:36.331Z,11.15
2022-11-16T15:52:46.141Z,11.09
2022-11-16T15:55:50.212Z,11.10
2022-11-16T15:58:55.062Z,11.15
2022-11-16T16:01:58.055Z,11.15
2022-11-16T16:05:00.816Z,11.15
2022-11-16T16:08:04.134Z,11.15
2022-11-16T16:11:27.660Z,11.16
2022-11-16T16:14:31.118Z,11.14
2022-11-16T16:17:34.390Z,11.04
2022-11-16T16:20:37.917Z,10.96
2022-11-16T16:23:48.524Z,11.07
2022-11-16T16:26:51.110Z,11.06
2022-11-16T16:29:56.646Z,11.16
2022-11-16T16:32:59.459Z,11.14
2022-11-16T16:36:02.480Z,11.25
2022-11-16T16:39:05.132Z,11.18
2022-11-16T16:42:11.743Z,11.07
2022-11-16T16:45:20.862Z,11.05
2022-11-16T16:48:23.693Z,11.17
2022-11-16T16:51:26.347Z,11.07
2022-11-16T16:54:29.641Z,11.05
2022-11-16T16:57:32.223Z,11.02
2022-11-16T17:00:35.488Z,11.03
2022-11-16T17:03:38.066Z,11.13
2022-11-16T17:06:46.180Z,11.12
2022-11-16T17:09:49.096Z,11.13
2022-11-16T17:12:55.813Z,11.19
2022-11-16T17:15:59.060Z,11.03
2022-11-16T17:19:03.722Z,11.12
2022-11-16T17:22:06.483Z,11.23
2022-11-16T17:25:10.672Z,11.21
2022-11-16T17:28:13.378Z,11.20
2022-11-16T17:31:17.500Z,11.23
2022-11-16T17:34:20.039Z,11.23
2022-11-16T17:37:22.871Z,11.29
2022-11-16T17:40:25.543Z,11.28
2022-11-16T17:43:28.638Z,11.21
2022-11-16T17:46:31.229Z,11.13
2022-11-16T17:49:34.052Z,11.25
2022-11-16T17:52:36.901Z,11.25
2022-11-16T17:55:40.523Z,11.28
2022-11-16T17:58:45.079Z,11.24
2022-11-16T18:01:49.443Z,11.20
2022-11-16T18:04:52.645Z,11.26
2022-11-16T18:07:55.463Z,11.20
2022-11-16T18:11:06.686Z,11.19
2022-11-16T18:14:10.596Z,11.08
2022-11-16T18:17:13.676Z,11.26
2022-11-16T18:20:17.635Z,11.09
2022-11-16T18:23:20.655Z,11.24
2022-11-16T18:26:24.152Z,11.09
2022-11-16T18:29:27.584Z,11.11
2022-11-16T18:32:30.701Z,11.05
2022-11-16T18:35:33.830Z,11.03
2022-11-16T18:38:37.500Z,11.11
2022-11-16T18:41:50.124Z,11.20
2022-11-16T18:44:56.304Z,11.16
2022-11-16T18:47:59.362Z,11.11
2022-11-16T18:51:04.376Z,11.19
2022-11-16T18:54:08.608Z,11.13
2022-11-16T18:57:11.378Z,11.15
2022-11-16T19:00:15.780Z,11.18
2022-11-16T19:03:18.404Z,11.18
2022-11-16T19:06:22.549Z,11.25
2022-11-16T19:09:26.336Z,11.26
2022-11-16T19:12:29.930Z,11.27
2022-11-16T19:15:34.474Z,11.22
2022-11-16T19:18:39.717Z,11.27
2022-11-16T19:21:42.706Z,11.20
2022-11-16T19:24:46.134Z,11.19
2022-11-16T19:27:48.884Z,11.15
2022-11-16T19:30:52.101Z,11.18
2022-11-16T19:33:57.346Z,11.14
2022-11-16T19:37:00.569Z,11.11
2022-11-16T19:40:04.093Z,11.20
2022-11-16T19:43:07.163Z,11.19
2022-11-16T19:46:23.231Z,11.32
2022-11-16T19:49:26.502Z,11.24
2022-11-16T19:52:29.434Z,11.25
2022-11-16T19:55:34.756Z,11.21
2022-11-16T19:58:38.647Z,11.25
2022-11-16T20:01:41.909Z,11.20
2022-11-16T20:04:45.009Z,11.21
2022-11-16T20:07:48.826Z,11.22
2022-11-16T20:10:51.903Z,11.24
2022-11-16T20:13:57.837Z,11.26
2022-11-16T20:17:01.003Z,11.25
2022-11-16T20:20:04.609Z,11.27
2022-11-16T20:23:07.702Z,11.21
2022-11-16T20:26:12.385Z,11.32
2022-11-16T20:29:18.505Z,11.34
2022-11-16T20:32:21.758Z,11.31
2022-11-16T20:35:24.623Z,11.35
2022-11-16T20:38:27.275Z,11.24
2022-11-16T20:41:32.221Z,11.29
2022-11-16T20:44:35.083Z,11.32
2022-11-16T20:47:38.031Z,11.25
2022-11-16T20:50:40.947Z,11.14
2022-11-16T20:53:46.408Z,11.18
2022-11-16T20:56:50.495Z,10.99
2022-11-16T20:59:53.562Z,10.94
2022-11-16T21:02:56.415Z,10.99
2022-11-16T21:06:00.363Z,11.00
2022-11-16T21:09:04.725Z,10.89
2022-11-16T21:12:27.995Z,10.93
2022-11-16T21:15:30.978Z,10.97
2022-11-16T21:18:34.629Z,10.95
2022-11-16T21:21:38.559Z,10.87
2022-11-16T21:24:41.468Z,10.96
2022-11-16T21:27:44.195Z,10.91
2022-11-16T21:31:17.805Z,10.90
2022-11-16T21:34:20.919Z,10.82
2022-11-16T21:37:23.937Z,10.85
2022-11-16T21:40:26.518Z,10.80
2022-11-16T21:43:29.338Z,10.89
2022-11-16T21:46:31.841Z,10.77
2022-11-16T21:49:39.652Z,10.82
2022-11-16T21:52:50.183Z,10.72
2022-11-16T21:55:53.043Z,10.75
2022-11-16T21:58:55.688Z,10.79
2022-11-16T22:02:01.358Z,10.78
2022-11-16T22:05:22.907Z,10.83
2022-11-16T22:08:25.599Z,10.83
2022-11-16T22:11:28.723Z,10.78
2022-11-16T22:14:31.255Z,10.75
2022-11-16T22:17:34.171Z,10.82
2022-11-16T22:20:36.725Z,10.85
2022-11-16T22:23:40.051Z,10.73
2022-11-16T22:26:43.037Z,10.66
2022-11-16T22:29:45.910Z,10.55
2022-11-16T22:32:48.434Z,10.50
2022-11-16T22:35:51.272Z,10.51
2022-11-16T22:38:57.088Z,10.38
2022-11-16T22:42:00.127Z,10.46
2022-11-16T22:45:02.737Z,10.23
2022-11-16T22:48:06.017Z,10.34
2022-11-16T22:51:27.937Z,10.48
2022-11-16T22:54:30.990Z,10.32
2022-11-16T22:57:33.506Z,10.22
2022-11-16T23:00:41.823Z,10.25
2022-11-16T23:03:46.069Z,10.24
2022-11-16T23:06:49.639Z,10.29
2022-11-16T23:09:52.209Z,10.04
2022-11-16T23:13:13.597Z,10.13
2022-11-16T23:16:16.149Z,9.85
2022-11-16T23:19:39.938Z,9.99
2022-11-16T23:23:00.954Z,9.76
2022-11-16T23:26:29.426Z,9.81
2022-11-16T23:29:32.165Z,9.63
2022-11-16T23:32:42.318Z,9.67
2022-11-16T23:35:44.908Z,9.63
2022-11-16T23:38:47.769Z,9.61
2022-11-16T23:42:08.687Z,9.62
2022-11-16T23:45:11.664Z,9.75
2022-11-16T23:48:16.002Z,9.61
2022-11-16T23:51:19.630Z,9.75
2022-11-16T23:54:22.171Z,9.65
2022-11-16T23:57:25.062Z,9.52
